Aviation Digital Data Service (ADDS)

Output produced by METARs form (0325 UTC 28 September 2016)
found at http://aviationweather.gov/adds/metars/
 
KMSS 272337Z 2800/2824 VRB03KT P6SM FEW200 
     FM281300 06007KT P6SM SCT150 
     FM282100 05011G19KT P6SM SCT150